sensor_id;sensor_type;location;lat;lon;timestamp;P1;durP1;ratioP1;P2;durP2;ratioP2
78015;SDS011;67223;51.102;5.882;2023-06-14T00:00:18;2.17;;;1.98;;
78015;SDS011;67223;51.102;5.882;2023-06-14T00:02:43;3.93;;;1.60;;
78015;SDS011;67223;51.102;5.882;2023-06-14T00:05:08;4.97;;;2.63;;
78015;SDS011;67223;51.102;5.882;2023-06-14T00:07:40;2.08;;;1.70;;
78015;SDS011;67223;51.102;5.882;2023-06-14T00:10:13;2.65;;;2.17;;
78015;SDS011;67223;51.102;5.882;2023-06-14T00:12:39;1.95;;;1.58;;
78015;SDS011;67223;51.102;5.882;2023-06-14T00:15:06;3.75;;;2.40;;
78015;SDS011;67223;51.102;5.882;2023-06-14T00:17:34;5.40;;;2.10;;
78015;SDS011;67223;51.102;5.882;2023-06-14T00:20:01;3.53;;;2.47;;
78015;SDS011;67223;51.102;5.882;2023-06-14T00:22:29;2.55;;;1.90;;
78015;SDS011;67223;51.102;5.882;2023-06-14T00:24:56;3.35;;;2.03;;
78015;SDS011;67223;51.102;5.882;2023-06-14T00:27:21;2.37;;;1.73;;
78015;SDS011;67223;51.102;5.882;2023-06-14T00:29:46;3.17;;;2.33;;
78015;SDS011;67223;51.102;5.882;2023-06-14T00:32:12;2.10;;;2.00;;
78015;SDS011;67223;51.102;5.882;2023-06-14T00:34:37;1.93;;;1.80;;
78015;SDS011;67223;51.102;5.882;2023-06-14T00:37:03;2.93;;;2.00;;
78015;SDS011;67223;51.102;5.882;2023-06-14T00:39:28;2.70;;;1.73;;
78015;SDS011;67223;51.102;5.882;2023-06-14T00:41:54;2.30;;;2.10;;
78015;SDS011;67223;51.102;5.882;2023-06-14T00:44:19;4.43;;;2.40;;
78015;SDS011;67223;51.102;5.882;2023-06-14T00:46:46;1.83;;;1.70;;
78015;SDS011;67223;51.102;5.882;2023-06-14T00:49:12;1.90;;;1.67;;
78015;SDS011;67223;51.102;5.882;2023-06-14T00:51:40;1.90;;;1.25;;
78015;SDS011;67223;51.102;5.882;2023-06-14T00:54:06;2.03;;;1.70;;
78015;SDS011;67223;51.102;5.882;2023-06-14T00:56:32;1.90;;;1.60;;
78015;SDS011;67223;51.102;5.882;2023-06-14T00:58:58;3.17;;;2.10;;
78015;SDS011;67223;51.102;5.882;2023-06-14T01:01:23;3.33;;;1.50;;
78015;SDS011;67223;51.102;5.882;2023-06-14T01:03:49;4.13;;;2.03;;
78015;SDS011;67223;51.102;5.882;2023-06-14T01:09:33;1.50;;;1.40;;
78015;SDS011;67223;51.102;5.882;2023-06-14T01:12:21;1.65;;;1.48;;
78015;SDS011;67223;51.102;5.882;2023-06-14T01:15:09;2.28;;;2.00;;
78015;SDS011;67223;51.102;5.882;2023-06-14T01:17:37;2.03;;;1.90;;
78015;SDS011;67223;51.102;5.882;2023-06-14T01:20:09;2.33;;;1.83;;
78015;SDS011;67223;51.102;5.882;2023-06-14T01:22:47;2.08;;;1.88;;
78015;SDS011;67223;51.102;5.882;2023-06-14T01:25:17;1.45;;;1.25;;
78015;SDS011;67223;51.102;5.882;2023-06-14T01:28:06;1.40;;;1.30;;
78015;SDS011;67223;51.102;5.882;2023-06-14T01:30:37;1.60;;;1.50;;
78015;SDS011;67223;51.102;5.882;2023-06-14T01:33:04;1.50;;;1.40;;
78015;SDS011;67223;51.102;5.882;2023-06-14T01:35:30;1.92;;;1.65;;
78015;SDS011;67223;51.102;5.882;2023-06-14T01:37:56;9.38;;;2.58;;
78015;SDS011;67223;51.102;5.882;2023-06-14T01:40:23;2.33;;;1.77;;
78015;SDS011;67223;51.102;5.882;2023-06-14T01:42:50;2.57;;;2.37;;
78015;SDS011;67223;51.102;5.882;2023-06-14T01:45:16;1.85;;;1.70;;
78015;SDS011;67223;51.102;5.882;2023-06-14T01:47:43;1.80;;;1.55;;
78015;SDS011;67223;51.102;5.882;2023-06-14T01:50:10;2.05;;;1.95;;
78015;SDS011;67223;51.102;5.882;2023-06-14T01:52:36;1.83;;;1.73;;
78015;SDS011;67223;51.102;5.882;2023-06-14T01:55:03;2.13;;;1.92;;
78015;SDS011;67223;51.102;5.882;2023-06-14T01:57:29;1.58;;;1.48;;
78015;SDS011;67223;51.102;5.882;2023-06-14T01:59:55;1.97;;;1.37;;
78015;SDS011;67223;51.102;5.882;2023-06-14T02:02:21;2.05;;;1.85;;
78015;SDS011;67223;51.102;5.882;2023-06-14T02:04:46;1.83;;;1.73;;
78015;SDS011;67223;51.102;5.882;2023-06-14T02:07:12;3.17;;;2.13;;
78015;SDS011;67223;51.102;5.882;2023-06-14T02:09:39;3.30;;;1.95;;
78015;SDS011;67223;51.102;5.882;2023-06-14T02:12:05;2.50;;;2.00;;
78015;SDS011;67223;51.102;5.882;2023-06-14T02:14:32;1.85;;;1.50;;
78015;SDS011;67223;51.102;5.882;2023-06-14T02:16:58;2.92;;;1.92;;
78015;SDS011;67223;51.102;5.882;2023-06-14T02:19:26;1.95;;;1.70;;
78015;SDS011;67223;51.102;5.882;2023-06-14T02:21:51;1.33;;;1.23;;
78015;SDS011;67223;51.102;5.882;2023-06-14T02:24:17;2.17;;;1.98;;
78015;SDS011;67223;51.102;5.882;2023-06-14T02:26:42;9.73;;;3.43;;
78015;SDS011;67223;51.102;5.882;2023-06-14T02:29:08;1.60;;;1.50;;
78015;SDS011;67223;51.102;5.882;2023-06-14T02:31:36;3.20;;;1.88;;
78015;SDS011;67223;51.102;5.882;2023-06-14T02:34:01;4.43;;;2.40;;
78015;SDS011;67223;51.102;5.882;2023-06-14T02:36:27;2.22;;;1.70;;
78015;SDS011;67223;51.102;5.882;2023-06-14T02:38:55;2.65;;;2.15;;
78015;SDS011;67223;51.102;5.882;2023-06-14T02:41:22;1.75;;;1.63;;
78015;SDS011;67223;51.102;5.882;2023-06-14T02:43:48;1.40;;;1.30;;
78015;SDS011;67223;51.102;5.882;2023-06-14T02:46:14;3.63;;;1.83;;
78015;SDS011;67223;51.102;5.882;2023-06-14T02:48:40;1.67;;;1.58;;
78015;SDS011;67223;51.102;5.882;2023-06-14T02:51:05;3.47;;;2.43;;
78015;SDS011;67223;51.102;5.882;2023-06-14T02:53:31;4.93;;;1.93;;
78015;SDS011;67223;51.102;5.882;2023-06-14T02:55:56;4.75;;;2.50;;
78015;SDS011;67223;51.102;5.882;2023-06-14T02:58:22;1.73;;;1.63;;
78015;SDS011;67223;51.102;5.882;2023-06-14T03:00:50;2.10;;;1.85;;
78015;SDS011;67223;51.102;5.882;2023-06-14T03:03:17;2.07;;;1.47;;
78015;SDS011;67223;51.102;5.882;2023-06-14T03:05:44;2.80;;;2.10;;
78015;SDS011;67223;51.102;5.882;2023-06-14T03:08:12;2.05;;;1.85;;
78015;SDS011;67223;51.102;5.882;2023-06-14T03:10:44;4.97;;;2.33;;
78015;SDS011;67223;51.102;5.882;2023-06-14T03:13:11;2.37;;;2.17;;
78015;SDS011;67223;51.102;5.882;2023-06-14T03:15:37;15.88;;;2.78;;
78015;SDS011;67223;51.102;5.882;2023-06-14T03:18:03;2.15;;;1.98;;
78015;SDS011;67223;51.102;5.882;2023-06-14T03:20:29;2.07;;;1.90;;
78015;SDS011;67223;51.102;5.882;2023-06-14T03:22:58;3.70;;;1.88;;
78015;SDS011;67223;51.102;5.882;2023-06-14T03:25:25;1.80;;;1.67;;
78015;SDS011;67223;51.102;5.882;2023-06-14T03:27:51;2.65;;;2.08;;
78015;SDS011;67223;51.102;5.882;2023-06-14T03:30:17;2.65;;;2.38;;
78015;SDS011;67223;51.102;5.882;2023-06-14T03:32:42;2.80;;;2.43;;
78015;SDS011;67223;51.102;5.882;2023-06-14T03:35:08;2.30;;;2.10;;
78015;SDS011;67223;51.102;5.882;2023-06-14T03:37:33;4.20;;;1.60;;
78015;SDS011;67223;51.102;5.882;2023-06-14T03:39:59;5.20;;;2.93;;
78015;SDS011;67223;51.102;5.882;2023-06-14T03:42:25;1.60;;;1.50;;
78015;SDS011;67223;51.102;5.882;2023-06-14T03:44:54;20.23;;;2.05;;
78015;SDS011;67223;51.102;5.882;2023-06-14T03:47:19;1.87;;;1.77;;
78015;SDS011;67223;51.102;5.882;2023-06-14T03:49:45;2.72;;;2.53;;
78015;SDS011;67223;51.102;5.882;2023-06-14T03:52:11;7.00;;;2.30;;
78015;SDS011;67223;51.102;5.882;2023-06-14T03:54:36;1.70;;;1.40;;
78015;SDS011;67223;51.102;5.882;2023-06-14T03:57:02;3.30;;;2.67;;
78015;SDS011;67223;51.102;5.882;2023-06-14T03:59:27;2.90;;;2.17;;
78015;SDS011;67223;51.102;5.882;2023-06-14T04:04:29;2.00;;;1.73;;
78015;SDS011;67223;51.102;5.882;2023-06-14T04:06:55;1.55;;;1.45;;
78015;SDS011;67223;51.102;5.882;2023-06-14T04:09:25;2.00;;;1.90;;
78015;SDS011;67223;51.102;5.882;2023-06-14T04:11:54;2.28;;;2.08;;
78015;SDS011;67223;51.102;5.882;2023-06-14T04:14:21;1.60;;;1.50;;
78015;SDS011;67223;51.102;5.882;2023-06-14T04:16:47;1.85;;;1.48;;
78015;SDS011;67223;51.102;5.882;2023-06-14T04:19:13;2.08;;;1.88;;
78015;SDS011;67223;51.102;5.882;2023-06-14T04:21:38;3.20;;;1.80;;
78015;SDS011;67223;51.102;5.882;2023-06-14T04:24:04;2.90;;;2.10;;
78015;SDS011;67223;51.102;5.882;2023-06-14T04:26:29;1.90;;;1.80;;
78015;SDS011;67223;51.102;5.882;2023-06-14T04:28:59;7.60;;;2.08;;
78015;SDS011;67223;51.102;5.882;2023-06-14T04:31:28;1.55;;;1.30;;
78015;SDS011;67223;51.102;5.882;2023-06-14T04:33:54;2.27;;;2.07;;
78015;SDS011;67223;51.102;5.882;2023-06-14T04:36:20;2.72;;;2.05;;
78015;SDS011;67223;51.102;5.882;2023-06-14T04:38:46;14.27;;;2.42;;
78015;SDS011;67223;51.102;5.882;2023-06-14T04:41:12;2.40;;;1.80;;
78015;SDS011;67223;51.102;5.882;2023-06-14T04:43:38;2.22;;;2.03;;
78015;SDS011;67223;51.102;5.882;2023-06-14T04:46:06;1.97;;;1.80;;
78015;SDS011;67223;51.102;5.882;2023-06-14T04:48:35;2.85;;;2.65;;
78015;SDS011;67223;51.102;5.882;2023-06-14T04:51:05;2.22;;;2.03;;
78015;SDS011;67223;51.102;5.882;2023-06-14T04:53:32;7.20;;;2.13;;
78015;SDS011;67223;51.102;5.882;2023-06-14T04:55:57;2.50;;;2.00;;
78015;SDS011;67223;51.102;5.882;2023-06-14T04:58:22;3.90;;;1.80;;
78015;SDS011;67223;51.102;5.882;2023-06-14T05:00:48;2.30;;;2.10;;
78015;SDS011;67223;51.102;5.882;2023-06-14T05:03:14;2.80;;;2.50;;
78015;SDS011;67223;51.102;5.882;2023-06-14T05:05:40;5.20;;;3.03;;
78015;SDS011;67223;51.102;5.882;2023-06-14T05:08:06;2.60;;;2.40;;
78015;SDS011;67223;51.102;5.882;2023-06-14T05:10:32;6.53;;;2.60;;
78015;SDS011;67223;51.102;5.882;2023-06-14T05:12:59;11.98;;;2.90;;
78015;SDS011;67223;51.102;5.882;2023-06-14T05:15:25;6.43;;;2.50;;
78015;SDS011;67223;51.102;5.882;2023-06-14T05:17:51;2.72;;;2.53;;
78015;SDS011;67223;51.102;5.882;2023-06-14T05:20:20;2.75;;;2.55;;
78015;SDS011;67223;51.102;5.882;2023-06-14T05:22:48;6.32;;;2.38;;
78015;SDS011;67223;51.102;5.882;2023-06-14T05:25:16;3.40;;;2.37;;
78015;SDS011;67223;51.102;5.882;2023-06-14T05:27:42;4.03;;;2.17;;
78015;SDS011;67223;51.102;5.882;2023-06-14T05:30:09;3.72;;;1.92;;
78015;SDS011;67223;51.102;5.882;2023-06-14T05:32:35;2.07;;;1.87;;
78015;SDS011;67223;51.102;5.882;2023-06-14T05:35:03;2.10;;;1.90;;
78015;SDS011;67223;51.102;5.882;2023-06-14T05:37:29;11.65;;;3.10;;
78015;SDS011;67223;51.102;5.882;2023-06-14T05:39:55;5.80;;;2.47;;
78015;SDS011;67223;51.102;5.882;2023-06-14T05:42:21;5.63;;;3.97;;
78015;SDS011;67223;51.102;5.882;2023-06-14T05:44:46;3.30;;;2.17;;
78015;SDS011;67223;51.102;5.882;2023-06-14T05:47:12;4.33;;;2.70;;
78015;SDS011;67223;51.102;5.882;2023-06-14T05:49:37;3.35;;;2.00;;
78015;SDS011;67223;51.102;5.882;2023-06-14T05:52:03;5.47;;;2.60;;
78015;SDS011;67223;51.102;5.882;2023-06-14T05:54:28;6.70;;;2.37;;
78015;SDS011;67223;51.102;5.882;2023-06-14T05:56:54;2.67;;;2.03;;
78015;SDS011;67223;51.102;5.882;2023-06-14T05:59:19;4.57;;;1.90;;
78015;SDS011;67223;51.102;5.882;2023-06-14T06:01:45;3.73;;;1.93;;
78015;SDS011;67223;51.102;5.882;2023-06-14T06:04:11;2.53;;;1.98;;
78015;SDS011;67223;51.102;5.882;2023-06-14T06:06:36;2.10;;;1.80;;
78015;SDS011;67223;51.102;5.882;2023-06-14T06:09:02;21.87;;;1.90;;
78015;SDS011;67223;51.102;5.882;2023-06-14T06:11:27;2.57;;;2.23;;
78015;SDS011;67223;51.102;5.882;2023-06-14T06:13:53;1.53;;;1.43;;
78015;SDS011;67223;51.102;5.882;2023-06-14T06:16:18;1.75;;;1.65;;
78015;SDS011;67223;51.102;5.882;2023-06-14T06:18:44;2.00;;;1.83;;
78015;SDS011;67223;51.102;5.882;2023-06-14T06:21:09;4.80;;;1.87;;
78015;SDS011;67223;51.102;5.882;2023-06-14T06:23:35;4.90;;;1.92;;
78015;SDS011;67223;51.102;5.882;2023-06-14T06:26:00;2.90;;;2.07;;
78015;SDS011;67223;51.102;5.882;2023-06-14T06:28:26;1.60;;;1.50;;
78015;SDS011;67223;51.102;5.882;2023-06-14T06:30:51;2.08;;;1.42;;
78015;SDS011;67223;51.102;5.882;2023-06-14T06:33:18;3.27;;;1.73;;
78015;SDS011;67223;51.102;5.882;2023-06-14T06:35:43;1.75;;;1.65;;
78015;SDS011;67223;51.102;5.882;2023-06-14T06:38:09;2.90;;;2.00;;
78015;SDS011;67223;51.102;5.882;2023-06-14T06:40:35;3.17;;;1.70;;
78015;SDS011;67223;51.102;5.882;2023-06-14T06:43:01;6.60;;;2.28;;
78015;SDS011;67223;51.102;5.882;2023-06-14T06:45:28;1.98;;;1.80;;
78015;SDS011;67223;51.102;5.882;2023-06-14T06:47:53;5.03;;;2.50;;
78015;SDS011;67223;51.102;5.882;2023-06-14T06:50:19;2.30;;;2.05;;
78015;SDS011;67223;51.102;5.882;2023-06-14T06:52:50;2.07;;;1.87;;
78015;SDS011;67223;51.102;5.882;2023-06-14T06:55:16;1.70;;;1.60;;
78015;SDS011;67223;51.102;5.882;2023-06-14T06:57:42;1.75;;;1.65;;
78015;SDS011;67223;51.102;5.882;2023-06-14T07:00:07;1.43;;;1.33;;
78015;SDS011;67223;51.102;5.882;2023-06-14T07:02:34;3.13;;;1.58;;
78015;SDS011;67223;51.102;5.882;2023-06-14T07:05:00;2.17;;;1.97;;
78015;SDS011;67223;51.102;5.882;2023-06-14T07:07:25;1.73;;;1.43;;
78015;SDS011;67223;51.102;5.882;2023-06-14T07:09:51;1.80;;;1.70;;
78015;SDS011;67223;51.102;5.882;2023-06-14T07:12:17;1.80;;;1.70;;
78015;SDS011;67223;51.102;5.882;2023-06-14T07:14:43;2.93;;;1.80;;
78015;SDS011;67223;51.102;5.882;2023-06-14T07:17:08;9.00;;;1.52;;
78015;SDS011;67223;51.102;5.882;2023-06-14T07:19:34;6.93;;;2.23;;
78015;SDS011;67223;51.102;5.882;2023-06-14T07:22:00;4.97;;;1.80;;
78015;SDS011;67223;51.102;5.882;2023-06-14T07:24:25;1.77;;;1.57;;
78015;SDS011;67223;51.102;5.882;2023-06-14T07:26:53;3.13;;;1.85;;
78015;SDS011;67223;51.102;5.882;2023-06-14T07:29:19;2.45;;;1.80;;
78015;SDS011;67223;51.102;5.882;2023-06-14T07:31:46;1.97;;;1.77;;
78015;SDS011;67223;51.102;5.882;2023-06-14T07:34:11;1.40;;;1.30;;
78015;SDS011;67223;51.102;5.882;2023-06-14T07:36:37;1.60;;;1.50;;
78015;SDS011;67223;51.102;5.882;2023-06-14T07:39:03;1.98;;;1.80;;
78015;SDS011;67223;51.102;5.882;2023-06-14T07:41:30;1.63;;;1.53;;
78015;SDS011;67223;51.102;5.882;2023-06-14T07:43:56;1.70;;;1.55;;
78015;SDS011;67223;51.102;5.882;2023-06-14T07:46:21;1.83;;;1.50;;
78015;SDS011;67223;51.102;5.882;2023-06-14T07:48:47;1.50;;;1.40;;
78015;SDS011;67223;51.102;5.882;2023-06-14T07:51:13;2.93;;;1.47;;
78015;SDS011;67223;51.102;5.882;2023-06-14T07:53:38;1.48;;;1.38;;
78015;SDS011;67223;51.102;5.882;2023-06-14T07:56:05;1.33;;;1.23;;
78015;SDS011;67223;51.102;5.882;2023-06-14T07:58:32;2.17;;;1.47;;
78015;SDS011;67223;51.102;5.882;2023-06-14T08:00:58;1.20;;;1.10;;
78015;SDS011;67223;51.102;5.882;2023-06-14T08:03:24;2.10;;;1.50;;
78015;SDS011;67223;51.102;5.882;2023-06-14T08:05:51;1.80;;;1.27;;
78015;SDS011;67223;51.102;5.882;2023-06-14T08:08:16;2.13;;;1.80;;
78015;SDS011;67223;51.102;5.882;2023-06-14T08:10:42;3.27;;;1.47;;
78015;SDS011;67223;51.102;5.882;2023-06-14T08:13:07;1.60;;;1.50;;
78015;SDS011;67223;51.102;5.882;2023-06-14T08:15:35;1.75;;;1.65;;
78015;SDS011;67223;51.102;5.882;2023-06-14T08:18:01;2.10;;;1.90;;
78015;SDS011;67223;51.102;5.882;2023-06-14T08:20:27;1.60;;;1.40;;
78015;SDS011;67223;51.102;5.882;2023-06-14T08:22:52;2.20;;;1.77;;
78015;SDS011;67223;51.102;5.882;2023-06-14T08:25:21;12.65;;;1.42;;
78015;SDS011;67223;51.102;5.882;2023-06-14T08:27:48;2.83;;;1.83;;
78015;SDS011;67223;51.102;5.882;2023-06-14T08:30:13;1.90;;;1.77;;
78015;SDS011;67223;51.102;5.882;2023-06-14T08:32:39;1.73;;;1.07;;
78015;SDS011;67223;51.102;5.882;2023-06-14T08:35:04;1.20;;;1.15;;
78015;SDS011;67223;51.102;5.882;2023-06-14T08:37:30;0.97;;;0.87;;
78015;SDS011;67223;51.102;5.882;2023-06-14T08:39:56;2.05;;;1.85;;
78015;SDS011;67223;51.102;5.882;2023-06-14T08:42:21;2.27;;;1.63;;
78015;SDS011;67223;51.102;5.882;2023-06-14T08:44:49;2.05;;;1.20;;
78015;SDS011;67223;51.102;5.882;2023-06-14T08:47:15;1.67;;;1.43;;
78015;SDS011;67223;51.102;5.882;2023-06-14T08:49:44;1.00;;;1.00;;
78015;SDS011;67223;51.102;5.882;2023-06-14T08:52:12;1.67;;;1.52;;
78015;SDS011;67223;51.102;5.882;2023-06-14T08:54:39;1.98;;;1.10;;
78015;SDS011;67223;51.102;5.882;2023-06-14T08:57:09;1.95;;;1.55;;
78015;SDS011;67223;51.102;5.882;2023-06-14T08:59:38;1.97;;;1.33;;
78015;SDS011;67223;51.102;5.882;2023-06-14T09:02:11;1.30;;;1.20;;
78015;SDS011;67223;51.102;5.882;2023-06-14T09:04:39;2.15;;;1.20;;
78015;SDS011;67223;51.102;5.882;2023-06-14T09:07:05;1.57;;;1.47;;
78015;SDS011;67223;51.102;5.882;2023-06-14T09:09:31;10.82;;;2.03;;
78015;SDS011;67223;51.102;5.882;2023-06-14T09:11:57;1.35;;;1.25;;
78015;SDS011;67223;51.102;5.882;2023-06-14T09:14:23;1.60;;;1.30;;
78015;SDS011;67223;51.102;5.882;2023-06-14T09:16:53;5.35;;;1.35;;
78015;SDS011;67223;51.102;5.882;2023-06-14T09:19:25;1.17;;;1.08;;
78015;SDS011;67223;51.102;5.882;2023-06-14T09:21:52;1.27;;;1.20;;
78015;SDS011;67223;51.102;5.882;2023-06-14T09:24:18;1.33;;;1.23;;
78015;SDS011;67223;51.102;5.882;2023-06-14T09:26:46;1.13;;;1.08;;
78015;SDS011;67223;51.102;5.882;2023-06-14T09:29:12;1.45;;;1.35;;
78015;SDS011;67223;51.102;5.882;2023-06-14T09:31:37;1.17;;;1.07;;
78015;SDS011;67223;51.102;5.882;2023-06-14T09:34:03;3.00;;;1.30;;
78015;SDS011;67223;51.102;5.882;2023-06-14T09:36:30;1.47;;;1.10;;
78015;SDS011;67223;51.102;5.882;2023-06-14T09:38:57;1.10;;;1.10;;
78015;SDS011;67223;51.102;5.882;2023-06-14T09:41:34;1.23;;;1.10;;
78015;SDS011;67223;51.102;5.882;2023-06-14T09:44:01;1.45;;;1.00;;
78015;SDS011;67223;51.102;5.882;2023-06-14T09:46:28;3.30;;;1.20;;
78015;SDS011;67223;51.102;5.882;2023-06-14T09:48:58;1.15;;;1.05;;
78015;SDS011;67223;51.102;5.882;2023-06-14T09:51:25;1.15;;;1.15;;
78015;SDS011;67223;51.102;5.882;2023-06-14T09:53:51;0.90;;;0.90;;
78015;SDS011;67223;51.102;5.882;2023-06-14T09:56:36;0.80;;;0.80;;
78015;SDS011;67223;51.102;5.882;2023-06-14T09:59:06;0.80;;;0.80;;
78015;SDS011;67223;51.102;5.882;2023-06-14T10:01:34;1.00;;;1.00;;
78015;SDS011;67223;51.102;5.882;2023-06-14T10:04:06;0.93;;;0.93;;
78015;SDS011;67223;51.102;5.882;2023-06-14T10:06:32;0.93;;;0.93;;
78015;SDS011;67223;51.102;5.882;2023-06-14T10:09:02;1.42;;;1.08;;
78015;SDS011;67223;51.102;5.882;2023-06-14T10:11:30;1.10;;;1.00;;
78015;SDS011;67223;51.102;5.882;2023-06-14T10:13:56;0.90;;;0.90;;
78015;SDS011;67223;51.102;5.882;2023-06-14T10:16:24;1.07;;;0.97;;
78015;SDS011;67223;51.102;5.882;2023-06-14T10:24:18;0.80;;;0.80;;
78015;SDS011;67223;51.102;5.882;2023-06-14T10:26:50;1.02;;;1.00;;
78015;SDS011;67223;51.102;5.882;2023-06-14T10:29:16;1.40;;;1.30;;
78015;SDS011;67223;51.102;5.882;2023-06-14T10:34:09;0.93;;;0.93;;
78015;SDS011;67223;51.102;5.882;2023-06-14T10:36:35;1.40;;;1.30;;
78015;SDS011;67223;51.102;5.882;2023-06-14T10:39:03;1.10;;;1.00;;
78015;SDS011;67223;51.102;5.882;2023-06-14T10:41:55;2.35;;;1.23;;
78015;SDS011;67223;51.102;5.882;2023-06-14T10:49:17;1.10;;;1.10;;
78015;SDS011;67223;51.102;5.882;2023-06-14T10:51:44;4.55;;;1.27;;
78015;SDS011;67223;51.102;5.882;2023-06-14T10:54:16;2.15;;;1.77;;
78015;SDS011;67223;51.102;5.882;2023-06-14T10:56:45;1.00;;;0.90;;
78015;SDS011;67223;51.102;5.882;2023-06-14T10:59:12;1.40;;;1.30;;
78015;SDS011;67223;51.102;5.882;2023-06-14T11:04:49;0.87;;;0.87;;
78015;SDS011;67223;51.102;5.882;2023-06-14T11:10:39;1.00;;;1.00;;
78015;SDS011;67223;51.102;5.882;2023-06-14T11:13:05;1.02;;;1.00;;
78015;SDS011;67223;51.102;5.882;2023-06-14T11:15:32;1.15;;;1.10;;
78015;SDS011;67223;51.102;5.882;2023-06-14T11:18:00;1.40;;;1.30;;
78015;SDS011;67223;51.102;5.882;2023-06-14T11:20:29;1.00;;;1.00;;
78015;SDS011;67223;51.102;5.882;2023-06-14T11:22:55;1.33;;;1.10;;
78015;SDS011;67223;51.102;5.882;2023-06-14T11:25:21;1.20;;;1.10;;
78015;SDS011;67223;51.102;5.882;2023-06-14T11:27:48;1.50;;;1.40;;
78015;SDS011;67223;51.102;5.882;2023-06-14T11:30:15;1.33;;;1.23;;
78015;SDS011;67223;51.102;5.882;2023-06-14T11:32:42;1.50;;;1.10;;
78015;SDS011;67223;51.102;5.882;2023-06-14T11:35:07;2.58;;;2.00;;
78015;SDS011;67223;51.102;5.882;2023-06-14T11:37:35;1.23;;;1.13;;
78015;SDS011;67223;51.102;5.882;2023-06-14T11:40:03;1.25;;;1.15;;
78015;SDS011;67223;51.102;5.882;2023-06-14T11:42:36;0.90;;;0.90;;
78015;SDS011;67223;51.102;5.882;2023-06-14T11:45:03;1.20;;;1.10;;
78015;SDS011;67223;51.102;5.882;2023-06-14T11:47:34;1.08;;;1.00;;
78015;SDS011;67223;51.102;5.882;2023-06-14T11:50:01;1.30;;;1.20;;
78015;SDS011;67223;51.102;5.882;2023-06-14T11:52:27;1.40;;;1.30;;
78015;SDS011;67223;51.102;5.882;2023-06-14T11:54:53;1.17;;;0.90;;
78015;SDS011;67223;51.102;5.882;2023-06-14T11:57:19;1.33;;;1.23;;
78015;SDS011;67223;51.102;5.882;2023-06-14T11:59:45;1.47;;;1.17;;
78015;SDS011;67223;51.102;5.882;2023-06-14T12:02:18;1.30;;;1.20;;
78015;SDS011;67223;51.102;5.882;2023-06-14T12:04:49;0.98;;;0.98;;
78015;SDS011;67223;51.102;5.882;2023-06-14T12:07:16;1.27;;;1.17;;
78015;SDS011;67223;51.102;5.882;2023-06-14T12:10:06;1.10;;;1.00;;
78015;SDS011;67223;51.102;5.882;2023-06-14T12:12:35;0.87;;;0.83;;
78015;SDS011;67223;51.102;5.882;2023-06-14T12:15:04;1.30;;;1.20;;
78015;SDS011;67223;51.102;5.882;2023-06-14T12:17:32;1.02;;;0.93;;
78015;SDS011;67223;51.102;5.882;2023-06-14T12:19:58;0.95;;;0.95;;
78015;SDS011;67223;51.102;5.882;2023-06-14T12:22:30;1.20;;;1.10;;
78015;SDS011;67223;51.102;5.882;2023-06-14T12:24:56;1.10;;;1.10;;
78015;SDS011;67223;51.102;5.882;2023-06-14T12:27:22;1.10;;;1.05;;
78015;SDS011;67223;51.102;5.882;2023-06-14T12:29:58;1.30;;;1.20;;
78015;SDS011;67223;51.102;5.882;2023-06-14T12:32:24;4.63;;;1.10;;
78015;SDS011;67223;51.102;5.882;2023-06-14T12:34:49;0.97;;;0.90;;
78015;SDS011;67223;51.102;5.882;2023-06-14T12:37:16;1.30;;;1.20;;
78015;SDS011;67223;51.102;5.882;2023-06-14T12:39:41;2.73;;;1.77;;
78015;SDS011;67223;51.102;5.882;2023-06-14T12:42:07;1.10;;;1.10;;
78015;SDS011;67223;51.102;5.882;2023-06-14T12:44:32;2.10;;;1.20;;
78015;SDS011;67223;51.102;5.882;2023-06-14T12:47:00;1.50;;;1.40;;
78015;SDS011;67223;51.102;5.882;2023-06-14T12:49:26;1.07;;;0.97;;
78015;SDS011;67223;51.102;5.882;2023-06-14T12:51:51;1.70;;;1.60;;
78015;SDS011;67223;51.102;5.882;2023-06-14T12:54:17;1.47;;;1.27;;
78015;SDS011;67223;51.102;5.882;2023-06-14T12:56:42;0.87;;;0.87;;
78015;SDS011;67223;51.102;5.882;2023-06-14T12:59:09;0.75;;;0.75;;
78015;SDS011;67223;51.102;5.882;2023-06-14T13:01:37;0.93;;;0.93;;
78015;SDS011;67223;51.102;5.882;2023-06-14T13:04:04;0.80;;;0.80;;
78015;SDS011;67223;51.102;5.882;2023-06-14T13:06:29;0.90;;;0.90;;
78015;SDS011;67223;51.102;5.882;2023-06-14T13:08:56;1.17;;;1.10;;
78015;SDS011;67223;51.102;5.882;2023-06-14T13:11:23;1.90;;;1.30;;
78015;SDS011;67223;51.102;5.882;2023-06-14T13:13:49;0.90;;;0.80;;
78015;SDS011;67223;51.102;5.882;2023-06-14T13:16:14;1.70;;;1.53;;
78015;SDS011;67223;51.102;5.882;2023-06-14T13:18:40;1.00;;;0.90;;
78015;SDS011;67223;51.102;5.882;2023-06-14T13:21:07;0.93;;;0.93;;
78015;SDS011;67223;51.102;5.882;2023-06-14T13:23:32;0.80;;;0.80;;
78015;SDS011;67223;51.102;5.882;2023-06-14T13:25:58;0.60;;;0.60;;
78015;SDS011;67223;51.102;5.882;2023-06-14T13:28:23;7.20;;;1.10;;
78015;SDS011;67223;51.102;5.882;2023-06-14T13:30:49;1.23;;;1.13;;
78015;SDS011;67223;51.102;5.882;2023-06-14T13:33:14;1.10;;;0.80;;
78015;SDS011;67223;51.102;5.882;2023-06-14T13:35:40;2.93;;;1.37;;
78015;SDS011;67223;51.102;5.882;2023-06-14T13:38:05;0.80;;;0.80;;
78015;SDS011;67223;51.102;5.882;2023-06-14T13:40:31;0.97;;;0.97;;
78015;SDS011;67223;51.102;5.882;2023-06-14T13:42:56;1.05;;;0.80;;
78015;SDS011;67223;51.102;5.882;2023-06-14T13:45:21;1.00;;;1.00;;
78015;SDS011;67223;51.102;5.882;2023-06-14T13:47:47;0.83;;;0.83;;
78015;SDS011;67223;51.102;5.882;2023-06-14T13:50:13;0.95;;;0.95;;
78015;SDS011;67223;51.102;5.882;2023-06-14T13:52:39;1.20;;;1.03;;
78015;SDS011;67223;51.102;5.882;2023-06-14T13:55:04;2.73;;;1.23;;
78015;SDS011;67223;51.102;5.882;2023-06-14T13:57:30;1.00;;;1.00;;
78015;SDS011;67223;51.102;5.882;2023-06-14T13:59:55;1.33;;;1.03;;
78015;SDS011;67223;51.102;5.882;2023-06-14T14:02:25;1.17;;;1.08;;
78015;SDS011;67223;51.102;5.882;2023-06-14T14:04:51;2.78;;;1.25;;
78015;SDS011;67223;51.102;5.882;2023-06-14T14:07:18;1.63;;;1.30;;
78015;SDS011;67223;51.102;5.882;2023-06-14T14:09:44;0.97;;;0.97;;
78015;SDS011;67223;51.102;5.882;2023-06-14T14:12:09;1.48;;;1.20;;
78015;SDS011;67223;51.102;5.882;2023-06-14T14:14:36;7.03;;;1.63;;
78015;SDS011;67223;51.102;5.882;2023-06-14T14:17:02;1.48;;;1.38;;
78015;SDS011;67223;51.102;5.882;2023-06-14T14:19:27;2.45;;;1.30;;
78015;SDS011;67223;51.102;5.882;2023-06-14T14:21:54;2.53;;;1.03;;
78015;SDS011;67223;51.102;5.882;2023-06-14T14:24:22;4.50;;;0.95;;
78015;SDS011;67223;51.102;5.882;2023-06-14T14:26:47;2.00;;;1.27;;
78015;SDS011;67223;51.102;5.882;2023-06-14T14:29:14;0.90;;;0.90;;
78015;SDS011;67223;51.102;5.882;2023-06-14T14:31:40;1.23;;;1.13;;
78015;SDS011;67223;51.102;5.882;2023-06-14T14:34:05;1.43;;;1.33;;
78015;SDS011;67223;51.102;5.882;2023-06-14T14:36:31;1.10;;;1.10;;
78015;SDS011;67223;51.102;5.882;2023-06-14T14:38:58;1.40;;;1.30;;
78015;SDS011;67223;51.102;5.882;2023-06-14T14:41:24;1.55;;;1.10;;
78015;SDS011;67223;51.102;5.882;2023-06-14T14:43:50;1.33;;;1.23;;
78015;SDS011;67223;51.102;5.882;2023-06-14T14:46:15;0.80;;;0.80;;
78015;SDS011;67223;51.102;5.882;2023-06-14T14:48:41;1.60;;;1.50;;
78015;SDS011;67223;51.102;5.882;2023-06-14T14:51:07;1.20;;;1.10;;
78015;SDS011;67223;51.102;5.882;2023-06-14T14:53:32;1.70;;;1.60;;
78015;SDS011;67223;51.102;5.882;2023-06-14T14:55:58;0.80;;;0.80;;
78015;SDS011;67223;51.102;5.882;2023-06-14T14:58:23;1.00;;;1.00;;
78015;SDS011;67223;51.102;5.882;2023-06-14T15:00:49;4.00;;;1.27;;
78015;SDS011;67223;51.102;5.882;2023-06-14T15:03:14;7.00;;;1.37;;
78015;SDS011;67223;51.102;5.882;2023-06-14T15:05:40;1.13;;;1.02;;
78015;SDS011;67223;51.102;5.882;2023-06-14T15:08:06;1.50;;;1.17;;
78015;SDS011;67223;51.102;5.882;2023-06-14T15:10:38;1.17;;;1.05;;